Time;durP1;ratioP1;P1;durP2;ratioP2;P2;SDS_P1;SDS_P2;PMS_P1;PMS_P2;Temp;Humidity;BMP_temperature;BMP_pressure;BME280_temperature;BME280_humidity;BME280_pressure;Samples;Min_cycle;Max_cycle;Signal;HPM_P1;HPM_P2
2022/02/12 00:01:01;;;;;;;10.63;3.33;;;0.60;99.90;;;;;;5022414;28;20091;-71
2022/02/12 00:03:27;;;;;;;9.38;3.63;;;0.50;99.90;;;;;;5029646;28;20038;-71
2022/02/12 00:05:52;;;;;;;9.02;4.13;;;0.50;99.90;;;;;;5029183;28;20045;-71
2022/02/12 00:08:18;;;;;;;8.15;4.07;;;0.40;99.90;;;;;;5028062;28;20025;-71
2022/02/12 00:10:44;;;;;;;6.90;3.50;;;0.30;99.90;;;;;;5032037;28;20443;-71
2022/02/12 00:13:10;;;;;;;13.18;4.88;;;0.20;99.90;;;;;;5026632;28;20049;-71
2022/02/12 00:15:35;;;;;;;7.60;3.97;;;0.20;99.90;;;;;;5032601;28;20030;-71
2022/02/12 00:18:01;;;;;;;9.57;3.80;;;0.10;99.90;;;;;;5030699;28;20490;-71
2022/02/12 00:20:27;;;;;;;8.50;3.67;;;0.20;99.90;;;;;;5032200;28;20056;-71
2022/02/12 00:22:52;;;;;;;6.90;3.63;;;0.20;99.90;;;;;;5021762;28;20031;-70
2022/02/12 00:25:18;;;;;;;7.63;3.50;;;0.20;99.90;;;;;;5026566;28;20072;-71
2022/02/12 00:27:43;;;;;;;11.45;4.05;;;0.20;99.90;;;;;;5029127;28;20026;-71
2022/02/12 00:30:09;;;;;;;10.55;3.95;;;0.20;99.90;;;;;;5024043;28;20030;-71
2022/02/12 00:32:35;;;;;;;13.60;4.53;;;0.10;99.90;;;;;;5029728;28;20587;-71
2022/02/12 00:35:01;;;;;;;13.27;5.15;;;0.10;99.90;;;;;;5023906;28;20077;-71
2022/02/12 00:37:28;;;;;;;9.13;4.53;;;0.00;99.90;;;;;;5029072;28;20037;-71
2022/02/12 00:39:54;;;;;;;10.23;4.00;;;0.00;99.90;;;;;;5028715;28;20466;-71
2022/02/12 00:42:22;;;;;;;9.85;4.28;;;-0.10;99.90;;;;;;5025350;28;20037;-71
2022/02/12 00:44:48;;;;;;;11.20;4.78;;;-0.10;99.90;;;;;;5028195;28;20108;-70
2022/02/12 00:47:13;;;;;;;10.18;4.25;;;0.10;99.90;;;;;;5031494;28;20029;-71
2022/02/12 00:49:39;;;;;;;9.88;4.18;;;0.10;99.90;;;;;;5013335;28;20041;-72
2022/02/12 00:52:04;;;;;;;10.07;4.90;;;0.10;99.90;;;;;;5031486;28;20486;-72
2022/02/12 00:54:32;;;;;;;14.13;7.35;;;0.20;99.90;;;;;;5031787;28;20505;-71
2022/02/12 00:56:58;;;;;;;19.60;12.68;;;0.00;99.90;;;;;;5029510;28;20061;-71
2022/02/12 00:59:24;;;;;;;18.55;11.60;;;-0.30;99.90;;;;;;4994303;28;20096;-71
2022/02/12 01:01:49;;;;;;;11.95;7.45;;;-0.20;99.90;;;;;;5011644;28;20022;-71
2022/02/12 01:04:15;;;;;;;12.38;6.95;;;-0.20;99.90;;;;;;5012115;28;20184;-71
2022/02/12 01:06:40;;;;;;;11.90;6.57;;;-0.20;99.90;;;;;;5012206;28;20030;-71
2022/02/12 01:09:06;;;;;;;16.25;8.00;;;-0.20;99.90;;;;;;5012020;28;20026;-72
2022/02/12 01:11:31;;;;;;;13.48;5.72;;;-0.10;99.90;;;;;;5011573;28;20034;-71
2022/02/12 01:13:57;;;;;;;9.57;5.55;;;-0.20;99.90;;;;;;5011859;28;20022;-71
2022/02/12 01:16:23;;;;;;;9.45;5.10;;;-0.30;99.90;;;;;;5012984;28;20025;-71
2022/02/12 01:18:48;;;;;;;12.13;4.85;;;-0.30;99.90;;;;;;5030251;28;20446;-71
2022/02/12 01:21:14;;;;;;;8.90;5.00;;;-0.30;99.90;;;;;;5035074;28;20018;-71
2022/02/12 01:23:39;;;;;;;12.32;4.90;;;-0.40;99.90;;;;;;5035657;28;20487;-71
2022/02/12 01:26:05;;;;;;;11.52;4.95;;;-0.40;99.90;;;;;;5035320;28;20021;-71
2022/02/12 01:28:31;;;;;;;8.98;5.47;;;-0.40;99.90;;;;;;5035434;28;20033;-71
2022/02/12 01:30:56;;;;;;;11.63;5.65;;;-0.40;99.90;;;;;;5035034;28;20029;-70
2022/02/12 01:33:22;;;;;;;11.25;5.60;;;-0.40;99.90;;;;;;5035396;28;20025;-69
2022/02/12 01:35:47;;;;;;;12.10;5.03;;;-0.50;99.90;;;;;;5035235;28;20033;-70
2022/02/12 01:38:13;;;;;;;12.40;4.32;;;-0.50;99.90;;;;;;5028001;28;20103;-71
2022/02/12 01:40:39;;;;;;;8.55;4.75;;;-0.50;99.90;;;;;;5028743;28;20021;-71
2022/02/12 01:43:07;;;;;;;8.88;5.07;;;-0.50;99.90;;;;;;5035299;28;20025;-71
2022/02/12 01:45:34;;;;;;;10.60;5.45;;;-0.50;99.90;;;;;;5017276;28;20104;-71
2022/02/12 01:48:00;;;;;;;14.13;6.53;;;-0.50;99.90;;;;;;5035265;28;20116;-71
2022/02/12 01:50:25;;;;;;;10.02;6.45;;;-0.60;99.90;;;;;;5034858;28;20332;-71
2022/02/12 01:52:52;;;;;;;10.00;5.13;;;-0.60;99.90;;;;;;5034906;28;20032;-71
2022/02/12 01:55:18;;;;;;;6.63;3.97;;;-0.70;99.90;;;;;;5034791;28;20442;-71
2022/02/12 01:57:44;;;;;;;9.50;4.90;;;-0.80;99.90;;;;;;5026390;28;20030;-71
2022/02/12 02:00:13;;;;;;;7.13;4.47;;;-0.70;99.90;;;;;;4997271;28;20029;-72
2022/02/12 02:02:38;;;;;;;10.40;4.43;;;-0.70;99.90;;;;;;5014893;28;20080;-71
2022/02/12 02:05:08;;;;;;;9.90;4.30;;;-0.70;99.90;;;;;;5014966;28;20026;-71
2022/02/12 02:07:33;;;;;;;11.75;5.10;;;-0.60;99.90;;;;;;5014886;28;20030;-72
2022/02/12 02:10:00;;;;;;;11.32;4.40;;;-0.70;99.90;;;;;;5014840;28;20038;-71
2022/02/12 02:12:26;;;;;;;9.75;4.38;;;-0.80;99.90;;;;;;4996904;28;20041;-71
2022/02/12 02:14:51;;;;;;;12.43;4.63;;;-0.80;99.90;;;;;;5014743;28;20034;-71
2022/02/12 02:17:18;;;;;;;9.70;4.32;;;-0.80;99.90;;;;;;4997542;28;20029;-71
2022/02/12 02:19:43;;;;;;;8.63;4.25;;;-0.70;99.90;;;;;;5014920;28;20471;-71
2022/02/12 02:22:10;;;;;;;13.95;5.43;;;-0.80;99.90;;;;;;5014438;28;20041;-71
2022/02/12 02:24:35;;;;;;;9.60;4.57;;;-0.90;99.90;;;;;;5014588;28;20440;-71
2022/02/12 02:27:08;;;;;;;11.02;5.35;;;-0.80;99.90;;;;;;5014358;28;20103;-71
2022/02/12 02:29:38;;;;;;;11.05;4.35;;;-0.80;99.90;;;;;;5014445;28;20037;-71
2022/02/12 02:32:04;;;;;;;10.90;5.60;;;-0.80;99.90;;;;;;4995154;28;20026;-71
2022/02/12 02:34:30;;;;;;;10.77;5.20;;;-0.70;99.90;;;;;;5013055;28;20021;-71
2022/02/12 02:36:56;;;;;;;9.82;4.50;;;-0.90;99.90;;;;;;5034055;28;20144;-71
2022/02/12 02:39:21;;;;;;;9.32;4.68;;;-1.00;99.90;;;;;;5034160;28;20519;-71
2022/02/12 02:41:47;;;;;;;12.07;6.50;;;-1.00;99.90;;;;;;5034098;28;20032;-71
2022/02/12 02:44:12;;;;;;;12.20;6.07;;;-1.00;99.90;;;;;;5033998;28;20029;-71
2022/02/12 02:46:38;;;;;;;12.43;7.50;;;-1.00;99.90;;;;;;5034076;28;20028;-70
2022/02/12 02:49:03;;;;;;;11.98;8.43;;;-0.90;99.90;;;;;;5033867;28;20040;-71
2022/02/12 02:56:57;;;;;;;12.57;5.70;;;-1.20;99.90;;;;;;5026071;28;20040;-70
2022/02/12 02:59:23;;;;;;;14.70;6.03;;;-1.20;99.90;;;;;;5013959;28;20391;-70
2022/02/12 03:01:52;;;;;;;8.95;5.40;;;-1.20;99.90;;;;;;5013531;28;20041;-70
2022/02/12 03:04:21;;;;;;;12.20;5.80;;;-1.10;99.90;;;;;;5013964;28;20014;-70
2022/02/12 03:06:47;;;;;;;12.27;5.25;;;-1.10;99.90;;;;;;5013809;28;20381;-71
2022/02/12 03:09:13;;;;;;;12.27;6.00;;;-1.10;99.90;;;;;;5013869;28;20030;-72
2022/02/12 03:11:38;;;;;;;10.55;5.55;;;-1.10;99.90;;;;;;5011365;28;20039;-70
2022/02/12 03:14:04;;;;;;;9.70;5.15;;;-1.10;99.90;;;;;;5033529;28;20018;-71
2022/02/12 03:16:31;;;;;;;10.40;5.22;;;-1.10;99.90;;;;;;5033328;28;20033;-71
2022/02/12 03:18:56;;;;;;;10.10;5.72;;;-1.30;99.90;;;;;;5033436;28;20036;-71
2022/02/12 03:21:22;;;;;;;12.32;5.85;;;-1.30;99.90;;;;;;5015491;28;20021;-71
2022/02/12 03:23:48;;;;;;;9.20;5.28;;;-1.20;99.90;;;;;;5033455;28;20061;-72
2022/02/12 03:26:14;;;;;;;13.05;5.72;;;-1.30;99.90;;;;;;5031409;28;20037;-72
2022/02/12 03:28:40;;;;;;;12.02;5.25;;;-1.30;99.90;;;;;;5022029;28;20483;-71
2022/02/12 03:31:06;;;;;;;17.58;5.47;;;-1.40;99.90;;;;;;5031464;28;20040;-71
2022/02/12 03:33:32;;;;;;;12.45;5.53;;;-1.30;99.90;;;;;;5004351;28;20036;-71
2022/02/12 03:35:58;;;;;;;10.70;4.80;;;-1.30;99.90;;;;;;5033134;28;20394;-72
2022/02/12 03:38:29;;;;;;;12.88;5.97;;;-1.40;99.90;;;;;;5033025;28;20467;-71
2022/02/12 03:40:58;;;;;;;10.32;5.05;;;-1.40;99.90;;;;;;5032682;28;20072;-71
2022/02/12 03:43:25;;;;;;;8.70;4.80;;;-1.50;99.90;;;;;;5032469;28;20021;-71
2022/02/12 03:45:50;;;;;;;10.10;5.43;;;-1.50;99.90;;;;;;5032725;28;20026;-70
2022/02/12 03:48:16;;;;;;;9.18;4.93;;;-1.50;99.90;;;;;;5023844;28;20083;-70
2022/02/12 03:50:42;;;;;;;11.20;6.32;;;-1.40;99.90;;;;;;5030649;28;20086;-71
2022/02/12 03:53:09;;;;;;;18.00;9.13;;;-1.40;99.90;;;;;;5032789;28;20033;-71
2022/02/12 03:55:39;;;;;;;11.20;7.63;;;-1.30;99.90;;;;;;5014955;28;20029;-72
2022/02/12 03:58:13;;;;;;;17.85;10.38;;;-1.40;99.90;;;;;;5032537;28;20021;-71
2022/02/12 04:00:40;;;;;;;14.25;8.15;;;-1.50;99.90;;;;;;5032315;28;20014;-71
2022/02/12 04:03:06;;;;;;;13.65;7.80;;;-1.60;99.90;;;;;;5032659;28;20017;-71
2022/02/12 04:05:32;;;;;;;16.95;7.90;;;-1.50;99.90;;;;;;5032894;28;20029;-72
2022/02/12 04:07:58;;;;;;;10.85;6.00;;;-1.50;99.90;;;;;;5032479;28;20591;-71
2022/02/12 04:10:23;;;;;;;13.95;7.47;;;-1.50;99.90;;;;;;5032119;28;20053;-71
2022/02/12 04:12:51;;;;;;;17.30;8.70;;;-1.50;99.90;;;;;;5039311;22;20054;-74
2022/02/12 04:15:17;;;;;;;13.00;7.22;;;-1.60;99.90;;;;;;5012601;28;20025;-75
2022/02/12 04:17:43;;;;;;;14.57;8.57;;;-1.40;99.90;;;;;;5012557;28;20026;-75
2022/02/12 04:20:12;;;;;;;18.38;12.77;;;-1.40;99.90;;;;;;5012559;28;20029;-75
2022/02/12 04:22:38;;;;;;;16.17;11.07;;;-1.40;99.90;;;;;;4997089;28;20061;-74
2022/02/12 04:25:07;;;;;;;13.55;7.45;;;-1.40;99.90;;;;;;4992745;28;20018;-74
2022/02/12 04:27:33;;;;;;;13.30;7.18;;;-1.50;99.90;;;;;;4992817;28;20125;-75
2022/02/12 04:29:59;;;;;;;9.75;6.70;;;-1.50;99.90;;;;;;4992712;28;20110;-75
2022/02/12 04:32:25;;;;;;;13.30;7.38;;;-1.50;99.90;;;;;;5005223;28;20109;-75
2022/02/12 04:34:52;;;;;;;12.63;7.03;;;-1.70;99.90;;;;;;5011089;28;20053;-75
2022/02/12 04:37:19;;;;;;;11.57;7.70;;;-1.80;99.90;;;;;;5012226;28;20030;-74
2022/02/12 04:39:45;;;;;;;9.57;7.60;;;-2.00;99.90;;;;;;5012108;28;20053;-75
2022/02/12 04:42:11;;;;;;;11.95;8.40;;;-1.90;99.90;;;;;;5011860;28;20471;-75
2022/02/12 04:44:42;;;;;;;11.45;6.15;;;-2.00;99.90;;;;;;5012271;28;20022;-75
2022/02/12 04:47:08;;;;;;;11.95;6.28;;;-1.90;99.90;;;;;;5010892;28;20070;-73
2022/02/12 04:49:34;;;;;;;11.38;5.97;;;-2.10;99.90;;;;;;5003509;28;20109;-74
2022/02/12 04:52:00;;;;;;;25.40;17.42;;;-1.90;99.90;;;;;;4992092;28;20019;-73
2022/02/12 04:54:26;;;;;;;23.58;13.45;;;-1.80;99.90;;;;;;4990415;28;20400;-75
2022/02/12 04:56:51;;;;;;;81.80;16.10;;;-1.70;99.90;;;;;;4990974;28;20030;-75
2022/02/12 04:59:17;;;;;;;28.70;11.70;;;-1.70;99.90;;;;;;4992436;28;20018;-75
2022/02/12 05:01:43;;;;;;;20.38;11.13;;;-1.70;99.90;;;;;;5007017;28;20045;-75
2022/02/12 05:04:10;;;;;;;21.80;11.10;;;-1.80;99.90;;;;;;5010879;28;20076;-75
2022/02/12 05:06:36;;;;;;;18.40;10.70;;;-1.80;99.90;;;;;;5010573;28;20411;-75
2022/02/12 05:09:02;;;;;;;13.23;8.35;;;-1.80;99.90;;;;;;5010544;28;20042;-75
2022/02/12 05:11:28;;;;;;;11.60;8.15;;;-1.80;99.90;;;;;;5010165;28;20038;-74
2022/02/12 05:13:53;;;;;;;18.30;12.05;;;-1.80;99.90;;;;;;5010687;28;20033;-75
2022/02/12 05:16:19;;;;;;;10.18;8.35;;;-1.80;99.90;;;;;;5009380;28;20491;-75
2022/02/12 05:18:45;;;;;;;13.10;8.75;;;-1.80;99.90;;;;;;4991089;28;20048;-74
2022/02/12 05:21:10;;;;;;;15.30;6.25;;;-1.80;99.90;;;;;;4990734;28;20026;-74
2022/02/12 05:23:36;;;;;;;16.10;6.78;;;-1.70;99.90;;;;;;5000574;28;20076;-74
2022/02/12 05:26:02;;;;;;;13.40;7.75;;;-1.70;99.90;;;;;;4997534;28;20034;-74
2022/02/12 05:28:27;;;;;;;14.40;7.30;;;-1.70;99.90;;;;;;5004413;28;20036;-74
2022/02/12 05:30:53;;;;;;;11.25;6.50;;;-1.80;99.90;;;;;;5003920;28;20033;-74
2022/02/12 05:33:19;;;;;;;11.15;5.65;;;-1.80;99.90;;;;;;4992314;28;20030;-73
2022/02/12 05:35:45;;;;;;;11.50;6.55;;;-1.80;99.90;;;;;;5005206;28;20036;-73
2022/02/12 05:38:12;;;;;;;9.75;5.60;;;-1.90;99.90;;;;;;4992099;28;20022;-73
2022/02/12 05:40:37;;;;;;;11.63;5.90;;;-2.00;99.90;;;;;;4991458;28;20476;-74
2022/02/12 05:43:03;;;;;;;11.27;5.53;;;-2.10;99.90;;;;;;5003110;28;20085;-73
2022/02/12 05:45:29;;;;;;;11.63;6.10;;;-2.10;99.90;;;;;;4990786;28;20030;-74
2022/02/12 05:47:54;;;;;;;11.85;5.78;;;-1.90;99.90;;;;;;4999571;28;20507;-74
2022/02/12 05:50:21;;;;;;;11.85;6.82;;;-2.20;99.90;;;;;;4997492;28;20030;-73
2022/02/12 05:52:47;;;;;;;11.73;6.95;;;-2.20;99.90;;;;;;5002730;28;20114;-75
2022/02/12 05:55:12;;;;;;;18.40;10.05;;;-2.10;99.90;;;;;;5003824;28;20388;-76
2022/02/12 05:57:38;;;;;;;13.38;7.18;;;-2.30;99.90;;;;;;4999342;28;20038;-76
2022/02/12 06:00:04;;;;;;;17.48;8.07;;;-2.50;99.90;;;;;;4996997;28;20141;-77
2022/02/12 06:02:29;;;;;;;15.02;8.73;;;-2.60;99.90;;;;;;5003862;28;20476;-76
2022/02/12 06:04:55;;;;;;;14.07;8.35;;;-2.50;99.90;;;;;;5005070;28;20025;-75
2022/02/12 06:07:20;;;;;;;13.30;7.45;;;-2.60;99.90;;;;;;5001771;28;20030;-75
2022/02/12 06:09:46;;;;;;;13.88;7.45;;;-2.50;99.90;;;;;;5001964;28;20026;-76
2022/02/12 06:12:11;;;;;;;15.15;10.00;;;-2.50;99.90;;;;;;5013457;28;20116;-75
2022/02/12 06:14:37;;;;;;;15.25;8.88;;;-2.50;99.90;;;;;;5014435;28;20056;-75
2022/02/12 06:17:02;;;;;;;13.38;7.20;;;-2.50;99.90;;;;;;5002543;28;20081;-75
2022/02/12 06:19:28;;;;;;;14.82;9.80;;;-2.50;99.90;;;;;;5001078;28;20029;-75
2022/02/12 06:21:53;;;;;;;18.08;11.55;;;-2.50;99.90;;;;;;4993777;28;20109;-75
2022/02/12 06:24:19;;;;;;;19.00;12.02;;;-2.40;99.90;;;;;;5006707;28;20037;-75
2022/02/12 06:26:51;;;;;;;19.95;9.40;;;-2.40;99.90;;;;;;5008242;28;20029;-75
2022/02/12 06:29:18;;;;;;;18.00;10.52;;;-2.70;99.90;;;;;;4999122;28;20026;-75
2022/02/12 06:31:43;;;;;;;23.17;20.63;;;-2.60;99.90;;;;;;4994943;28;20053;-76
2022/02/12 06:34:09;;;;;;;14.13;10.32;;;-2.50;99.90;;;;;;5008207;28;20054;-75
2022/02/12 06:36:34;;;;;;;17.85;11.75;;;-2.60;99.90;;;;;;5002686;28;20434;-75
2022/02/12 06:39:00;;;;;;;13.60;9.60;;;-2.70;99.90;;;;;;5001435;28;20038;-75
2022/02/12 06:41:25;;;;;;;14.95;10.60;;;-2.60;99.90;;;;;;5006878;28;20022;-75
2022/02/12 06:43:51;;;;;;;13.27;9.35;;;-2.60;99.90;;;;;;5006748;28;20080;-75
2022/02/12 06:46:16;;;;;;;12.57;7.35;;;-2.60;99.90;;;;;;5000809;28;20033;-75
2022/02/12 06:48:42;;;;;;;11.98;7.05;;;-2.50;99.90;;;;;;5000679;28;20068;-75
2022/02/12 06:51:08;;;;;;;14.50;7.93;;;-2.50;99.90;;;;;;5001858;28;20395;-75
2022/02/12 06:53:33;;;;;;;18.80;11.50;;;-2.40;99.90;;;;;;5000313;28;20391;-76
2022/02/12 06:56:03;;;;;;;14.18;9.82;;;-2.60;99.90;;;;;;5000831;28;20029;-77
2022/02/12 06:58:29;;;;;;;14.07;9.30;;;-2.60;99.90;;;;;;5000968;28;20038;-76
2022/02/12 07:00:54;;;;;;;17.30;8.90;;;-2.50;99.90;;;;;;5006071;28;20045;-76
2022/02/12 07:03:20;;;;;;;13.10;9.68;;;-2.50;99.90;;;;;;5007749;28;20022;-77
2022/02/12 07:05:45;;;;;;;13.25;9.55;;;-2.60;99.90;;;;;;5000967;28;20113;-77
2022/02/12 07:08:11;;;;;;;13.70;9.18;;;-2.60;99.90;;;;;;5000951;28;20480;-76
2022/02/12 07:10:36;;;;;;;13.40;8.82;;;-2.60;99.90;;;;;;5004802;28;20088;-76
2022/02/12 07:13:03;;;;;;;14.68;10.10;;;-2.50;99.90;;;;;;5005982;28;20038;-77
2022/02/12 07:15:29;;;;;;;16.55;10.57;;;-2.40;99.90;;;;;;5002420;28;20038;-76
2022/02/12 07:17:54;;;;;;;11.30;8.25;;;-2.40;99.90;;;;;;4999833;28;20038;-74
2022/02/12 07:20:20;;;;;;;15.68;10.23;;;-2.30;99.90;;;;;;5005477;28;20022;-75
2022/02/12 07:22:46;;;;;;;15.27;10.95;;;-2.30;99.90;;;;;;4994216;28;20023;-73
2022/02/12 07:25:13;;;;;;;14.70;9.68;;;-2.20;99.90;;;;;;5005843;28;20033;-74
2022/02/12 07:27:41;;;;;;;17.75;9.68;;;-2.10;99.90;;;;;;4992998;28;20033;-75
2022/02/12 07:30:08;;;;;;;14.43;10.60;;;-2.10;99.90;;;;;;4995953;28;20392;-74
2022/02/12 07:32:38;;;;;;;14.57;10.75;;;-2.20;99.90;;;;;;4994506;28;20461;-74
2022/02/12 07:35:11;;;;;;;17.00;10.57;;;-2.10;99.90;;;;;;4991446;28;20461;-74
2022/02/12 07:37:41;;;;;;;15.27;10.27;;;-2.00;99.90;;;;;;4992280;28;20029;-74
2022/02/12 07:40:07;;;;;;;15.90;8.48;;;-2.00;99.90;;;;;;4992480;28;20022;-75
2022/02/12 07:42:32;;;;;;;14.73;9.50;;;-1.90;99.90;;;;;;4993810;28;20421;-74
2022/02/12 07:44:58;;;;;;;16.15;9.40;;;-1.70;99.90;;;;;;4993766;28;20054;-74
2022/02/12 07:47:24;;;;;;;12.07;8.90;;;-1.80;99.90;;;;;;4994930;28;20590;-75
2022/02/12 07:49:50;;;;;;;12.85;9.05;;;-1.80;99.90;;;;;;4993316;28;20431;-74
2022/02/12 07:52:15;;;;;;;15.00;10.60;;;-1.70;99.90;;;;;;4992815;28;20037;-74
2022/02/12 07:54:41;;;;;;;18.58;12.50;;;-1.70;99.90;;;;;;4993115;28;20026;-74
2022/02/12 07:57:08;;;;;;;14.90;10.68;;;-1.60;99.90;;;;;;4994691;28;20514;-75
2022/02/12 07:59:33;;;;;;;15.18;10.48;;;-1.50;99.90;;;;;;4991895;28;20507;-75
2022/02/12 08:01:59;;;;;;;14.98;10.38;;;-1.40;99.90;;;;;;4998703;28;20030;-74
2022/02/12 08:04:24;;;;;;;13.70;9.27;;;-1.30;99.90;;;;;;4993102;28;20034;-75
2022/02/12 08:09:34;;;;;;;12.90;9.18;;;-1.20;99.90;;;;;;4998176;28;20041;-75
2022/02/12 08:12:13;;;;;;;17.45;11.43;;;-1.10;99.90;;;;;;4991036;28;20030;-75
2022/02/12 08:14:43;;;;;;;16.48;10.90;;;-1.00;99.90;;;;;;4993735;28;20107;-75
2022/02/12 08:17:09;;;;;;;15.15;10.50;;;-1.00;99.90;;;;;;4992326;28;20026;-75
2022/02/12 08:19:37;;;;;;;14.93;9.60;;;-1.00;99.90;;;;;;4991129;28;20057;-73
2022/02/12 08:22:06;;;;;;;16.38;11.85;;;-1.00;99.90;;;;;;4993195;28;20034;-76
2022/02/12 08:24:32;;;;;;;16.20;12.38;;;-0.90;99.90;;;;;;4993025;28;20033;-75
2022/02/12 08:26:58;;;;;;;16.35;11.35;;;-0.90;99.90;;;;;;5000264;28;20022;-75
2022/02/12 08:29:28;;;;;;;18.42;12.45;;;-1.00;99.90;;;;;;4992809;28;20029;-75
2022/02/12 08:32:02;;;;;;;15.48;10.20;;;-1.00;99.90;;;;;;4992866;28;20041;-74
2022/02/12 08:34:28;;;;;;;20.10;12.85;;;-0.90;99.90;;;;;;4989519;28;20104;-76
2022/02/12 08:36:55;;;;;;;19.27;13.63;;;-0.80;99.90;;;;;;4992805;28;20548;-76
2022/02/12 08:39:21;;;;;;;15.88;12.00;;;-0.80;99.90;;;;;;4991087;28;20109;-75
2022/02/12 08:41:47;;;;;;;16.58;11.88;;;-0.70;99.90;;;;;;4992315;28;20030;-74
2022/02/12 08:44:14;;;;;;;16.00;10.98;;;-0.60;99.90;;;;;;4991065;28;20073;-75
2022/02/12 08:46:39;;;;;;;13.70;10.63;;;-0.50;99.90;;;;;;4995246;28;20050;-74
2022/02/12 08:49:06;;;;;;;16.42;9.88;;;-0.50;99.90;;;;;;4991065;28;20065;-75
2022/02/12 08:51:37;;;;;;;11.43;7.25;;;-0.40;99.90;;;;;;4991049;28;20069;-74
2022/02/12 08:54:10;;;;;;;16.08;10.30;;;-0.30;99.90;;;;;;4990740;28;20703;-75
2022/02/12 08:56:38;;;;;;;15.20;10.73;;;-0.10;99.90;;;;;;4991451;28;20026;-75
2022/02/12 08:59:05;;;;;;;14.93;9.80;;;-0.10;99.90;;;;;;4991415;28;20023;-75
2022/02/12 09:01:31;;;;;;;14.63;9.80;;;-0.10;99.90;;;;;;4991385;28;20077;-75
2022/02/12 09:03:57;;;;;;;16.50;10.90;;;0.10;99.90;;;;;;4991756;28;20023;-76
2022/02/12 09:06:23;;;;;;;19.85;11.68;;;0.00;99.90;;;;;;4992149;28;20492;-76
2022/02/12 09:08:51;;;;;;;16.92;11.35;;;0.00;99.90;;;;;;4994489;28;20034;-76
2022/02/12 09:11:18;;;;;;;16.13;11.73;;;0.10;99.90;;;;;;4986144;28;20038;-76
2022/02/12 09:13:44;;;;;;;15.88;12.63;;;0.10;99.90;;;;;;4987952;28;20037;-76
2022/02/12 09:16:09;;;;;;;18.50;12.75;;;0.20;99.90;;;;;;4993049;28;20026;-76
2022/02/12 09:18:35;;;;;;;18.92;14.57;;;0.30;99.90;;;;;;5010098;28;20061;-75
2022/02/12 09:21:00;;;;;;;19.55;15.40;;;0.50;99.90;;;;;;4990266;28;20423;-76
2022/02/12 09:23:28;;;;;;;20.88;16.33;;;0.40;99.90;;;;;;4991667;28;20481;-76
2022/02/12 09:25:53;;;;;;;18.70;16.70;;;0.30;99.90;;;;;;4992412;28;20513;-76
2022/02/12 09:28:19;;;;;;;21.75;16.25;;;0.40;99.90;;;;;;4994677;28;20030;-76
2022/02/12 09:30:44;;;;;;;20.20;15.20;;;0.40;99.90;;;;;;4990956;28;20022;-76
2022/02/12 09:33:10;;;;;;;18.75;15.90;;;0.50;99.90;;;;;;4990583;28;20548;-75
2022/02/12 09:35:36;;;;;;;15.27;12.15;;;0.50;99.90;;;;;;4991810;28;20528;-74
2022/02/12 09:38:01;;;;;;;16.88;11.93;;;0.60;99.90;;;;;;5023555;28;20084;-74
2022/02/12 09:40:27;;;;;;;16.17;13.50;;;0.70;99.90;;;;;;5006673;28;20404;-74
2022/02/12 09:42:56;;;;;;;19.33;14.02;;;0.80;99.90;;;;;;5007036;28;20026;-75
2022/02/12 09:45:22;;;;;;;14.02;12.30;;;0.80;99.90;;;;;;5007832;28;20044;-74
2022/02/12 09:47:49;;;;;;;15.23;11.57;;;0.80;99.90;;;;;;4995944;28;20551;-74
2022/02/12 09:50:20;;;;;;;11.95;10.75;;;0.90;99.90;;;;;;4995568;28;20058;-74
2022/02/12 09:52:52;;;;;;;11.48;10.23;;;0.90;99.90;;;;;;4995853;28;20038;-75
2022/02/12 09:55:19;;;;;;;14.15;10.77;;;1.00;99.90;;;;;;4995238;28;20056;-74
2022/02/12 09:57:45;;;;;;;11.90;8.93;;;1.00;99.90;;;;;;4995399;28;20030;-75
2022/02/12 10:00:14;;;;;;;10.75;8.90;;;1.20;99.90;;;;;;4996398;28;20018;-74
2022/02/12 10:02:40;;;;;;;8.77;7.57;;;1.30;99.90;;;;;;4995196;28;20025;-75
2022/02/12 10:05:28;;;;;;;8.80;6.95;;;1.40;99.90;;;;;;4999011;28;20026;-75
2022/02/12 10:08:03;;;;;;;9.75;7.75;;;1.50;99.90;;;;;;4992351;28;20033;-76
2022/02/12 10:10:32;;;;;;;11.98;8.48;;;1.70;99.90;;;;;;4994520;28;20514;-75
2022/02/12 10:13:08;;;;;;;10.85;8.23;;;1.80;99.90;;;;;;4998317;28;20480;-75
2022/02/12 10:15:34;;;;;;;11.55;8.77;;;1.80;99.90;;;;;;4995420;28;20027;-75
2022/02/12 10:18:01;;;;;;;9.27;7.47;;;2.00;99.90;;;;;;5000550;28;20058;-76
2022/02/12 10:20:33;;;;;;;13.52;8.73;;;1.80;99.90;;;;;;4994897;28;20030;-74
2022/02/12 10:23:19;;;;;;;12.02;8.25;;;1.90;99.90;;;;;;4991459;28;20030;-74
2022/02/12 10:25:46;;;;;;;7.05;6.00;;;2.00;99.90;;;;;;4995054;28;20018;-74
2022/02/12 10:28:14;;;;;;;7.13;5.60;;;1.90;99.90;;;;;;4993615;28;20031;-74
2022/02/12 10:30:42;;;;;;;6.90;5.00;;;2.10;99.90;;;;;;4993937;28;20062;-74
2022/02/12 10:33:08;;;;;;;6.30;4.90;;;2.20;99.90;;;;;;4995181;28;20026;-74
2022/02/12 10:35:35;;;;;;;8.50;4.30;;;2.20;99.90;;;;;;5000397;28;20037;-74
2022/02/12 10:38:16;;;;;;;4.80;4.07;;;2.30;99.90;;;;;;4994555;28;20030;-74
2022/02/12 10:40:42;;;;;;;5.43;4.43;;;2.30;99.90;;;;;;4992760;28;20031;-74
2022/02/12 10:43:08;;;;;;;5.03;3.92;;;2.40;99.90;;;;;;4999175;28;20029;-74
2022/02/12 10:45:34;;;;;;;6.82;4.22;;;2.50;99.90;;;;;;4993326;28;20113;-75
2022/02/12 10:48:00;;;;;;;6.47;4.35;;;2.60;99.90;;;;;;4994565;28;20113;-75
2022/02/12 10:50:28;;;;;;;6.60;4.75;;;2.70;99.90;;;;;;4994408;28;20030;-75
2022/02/12 10:52:56;;;;;;;6.68;4.63;;;2.70;99.90;;;;;;4993578;28;20030;-75
2022/02/12 10:55:38;;;;;;;7.35;5.13;;;2.80;99.90;;;;;;4994527;28;20022;-75
2022/02/12 10:58:05;;;;;;;6.55;4.47;;;2.60;99.90;;;;;;4993095;28;20045;-75
2022/02/12 11:00:33;;;;;;;7.38;4.43;;;2.70;99.90;;;;;;4991373;28;20077;-75
2022/02/12 11:03:01;;;;;;;8.38;4.57;;;2.70;99.90;;;;;;4994622;28;20038;-75
2022/02/12 11:05:27;;;;;;;9.43;5.32;;;2.90;99.90;;;;;;4993238;28;20054;-75
2022/02/12 11:07:53;;;;;;;22.25;12.43;;;3.10;99.90;;;;;;4996210;28;20033;-75
2022/02/12 11:10:20;;;;;;;7.78;5.57;;;3.50;99.90;;;;;;5001462;28;20105;-76
2022/02/12 11:12:47;;;;;;;12.35;9.77;;;3.60;99.90;;;;;;4994531;28;20042;-75
2022/02/12 11:15:13;;;;;;;14.43;9.23;;;3.20;99.90;;;;;;5005811;28;20025;-75
2022/02/12 11:17:40;;;;;;;11.85;8.63;;;3.00;99.90;;;;;;4998519;28;20026;-76
2022/02/12 11:20:08;;;;;;;9.90;8.43;;;3.00;99.90;;;;;;5002492;28;20033;-76
2022/02/12 11:22:35;;;;;;;9.05;7.60;;;3.00;99.90;;;;;;4994379;28;20722;-76
2022/02/12 11:25:01;;;;;;;8.13;5.97;;;3.40;99.90;;;;;;4993915;28;20049;-76
2022/02/12 11:27:31;;;;;;;9.52;6.82;;;3.30;99.90;;;;;;4993906;28;20497;-76
2022/02/12 11:30:16;;;;;;;11.15;8.88;;;3.50;99.90;;;;;;4994667;28;20068;-75
2022/02/12 11:32:45;;;;;;;6.63;4.80;;;3.40;99.90;;;;;;4995407;28;20109;-76
2022/02/12 11:35:11;;;;;;;5.97;4.00;;;3.40;99.90;;;;;;4992427;28;20022;-76
2022/02/12 11:37:42;;;;;;;5.10;3.95;;;3.60;99.90;;;;;;4993595;28;20400;-76
2022/02/12 11:40:20;;;;;;;7.55;3.53;;;3.70;99.90;;;;;;4993588;28;20098;-75
2022/02/12 11:42:59;;;;;;;5.43;3.97;;;4.00;99.90;;;;;;4991202;28;20022;-75
2022/02/12 11:45:35;;;;;;;8.10;6.28;;;4.20;99.90;;;;;;4988378;28;20014;-76
2022/02/12 11:48:13;;;;;;;6.65;4.75;;;3.90;99.90;;;;;;5009596;28;20621;-76
2022/02/12 11:50:47;;;;;;;7.57;5.40;;;4.10;99.90;;;;;;5010506;28;20535;-76
2022/02/12 11:53:33;;;;;;;6.53;5.25;;;4.20;99.90;;;;;;4999443;28;20026;-76
2022/02/12 11:56:00;;;;;;;4.32;3.38;;;4.10;99.90;;;;;;4981096;28;20034;-76
2022/02/12 11:58:45;;;;;;;4.45;2.20;;;4.30;99.90;;;;;;4992589;28;20034;-76
2022/02/12 12:01:24;;;;;;;5.25;2.10;;;4.70;99.90;;;;;;5003237;28;20365;-76
2022/02/12 12:04:10;;;;;;;4.53;2.47;;;4.80;99.90;;;;;;5006342;28;20018;-75
2022/02/12 12:06:40;;;;;;;;;;;4.80;99.90;;;;;;5006880;28;20049;-75
2022/02/12 12:09:13;;;;;;;3.03;2.25;;;5.20;99.90;;;;;;4992582;28;19905;-75
2022/02/12 12:11:41;;;;;;;4.55;2.63;;;5.60;99.90;;;;;;4990565;28;20038;-75
2022/02/12 12:14:22;;;;;;;4.53;2.00;;;5.70;99.90;;;;;;4991549;28;20026;-75
2022/02/12 12:16:54;;;;;;;3.08;2.30;;;5.70;99.90;;;;;;4993359;28;20022;-75
2022/02/12 12:19:31;;;;;;;4.75;2.22;;;5.50;99.90;;;;;;4992352;28;20365;-75
2022/02/12 12:22:02;;;;;;;4.68;2.67;;;5.50;99.90;;;;;;4990810;28;20061;-75
2022/02/12 12:24:28;;;;;;;5.28;2.03;;;5.30;99.90;;;;;;4991303;28;20479;-76
2022/02/12 12:26:53;;;;;;;3.38;2.63;;;5.20;99.90;;;;;;4992340;28;20117;-75
2022/02/12 12:32:10;;;;;;;6.35;2.35;;;5.30;99.90;;;;;;4992362;28;20169;-75
2022/02/12 12:34:47;;;;;;;4.32;1.90;;;5.50;99.90;;;;;;4996071;28;20030;-77
2022/02/12 12:37:13;;;;;;;4.38;1.90;;;5.50;99.90;;;;;;4994994;28;20022;-76
2022/02/12 12:39:39;;;;;;;2.08;1.58;;;5.50;99.90;;;;;;4991955;28;20037;-75
2022/02/12 12:42:16;;;;;;;3.05;2.25;;;5.40;99.90;;;;;;4990482;28;20050;-75
2022/02/12 12:44:43;;;;;;;5.22;2.22;;;5.40;99.90;;;;;;4991312;28;20018;-76
2022/02/12 12:47:09;;;;;;;3.20;2.00;;;5.50;99.90;;;;;;4991409;28;20480;-78
2022/02/12 12:49:40;;;;;;;2.35;1.70;;;5.60;99.90;;;;;;4989737;28;20417;-77
2022/02/12 12:52:11;;;;;;;2.53;1.58;;;5.80;99.90;;;;;;4990595;28;20022;-77